createdAt,value
2022-09-24T00:02:22.209Z,99.90
2022-09-24T00:04:50.645Z,99.90
2022-09-24T00:07:19.052Z,99.90
2022-09-24T00:09:48.324Z,99.90
2022-09-24T00:12:17.202Z,99.90
2022-09-24T00:14:46.970Z,99.90
2022-09-24T00:17:15.515Z,99.90
2022-09-24T00:19:44.442Z,99.90
2022-09-24T00:22:12.968Z,99.90
2022-09-24T00:25:04.263Z,99.90
2022-09-24T00:27:32.807Z,99.90
2022-09-24T00:30:02.597Z,99.90
2022-09-24T00:32:31.071Z,99.90
2022-09-24T00:34:59.799Z,99.90
2022-09-24T00:37:29.078Z,99.90
2022-09-24T00:39:58.000Z,99.90
2022-09-24T00:42:26.402Z,99.90
2022-09-24T00:44:56.439Z,99.90
2022-09-24T00:47:36.250Z,99.90
2022-09-24T00:50:09.788Z,99.90
2022-09-24T00:52:40.900Z,99.90
2022-09-24T00:55:10.442Z,99.90
2022-09-24T00:57:40.359Z,99.90
2022-09-24T01:00:10.458Z,99.90
2022-09-24T01:02:41.000Z,99.90
2022-09-24T01:05:10.344Z,99.90
2022-09-24T01:07:38.851Z,99.90
2022-09-24T01:10:07.835Z,99.90
2022-09-24T01:12:43.839Z,99.90
2022-09-24T01:15:19.658Z,99.90
2022-09-24T01:17:54.167Z,99.90
2022-09-24T01:20:47.398Z,99.90
2022-09-24T01:23:33.144Z,99.90
2022-09-24T01:26:19.066Z,99.90
2022-09-24T01:28:57.546Z,99.90
2022-09-24T01:31:30.773Z,99.90
2022-09-24T01:34:01.230Z,99.90
2022-09-24T01:36:29.808Z,99.90
2022-09-24T01:38:59.989Z,99.90
2022-09-24T01:41:28.656Z,99.90
2022-09-24T01:43:57.136Z,99.90
2022-09-24T01:46:27.255Z,99.90
2022-09-24T01:48:55.772Z,99.90
2022-09-24T01:51:27.344Z,99.90
2022-09-24T01:54:01.562Z,99.90
2022-09-24T01:56:34.107Z,99.90
2022-09-24T01:59:04.337Z,99.90
2022-09-24T02:01:37.543Z,99.90
2022-09-24T02:04:11.228Z,99.90
2022-09-24T02:06:43.191Z,99.90
2022-09-24T02:09:33.270Z,99.90
2022-09-24T02:12:07.018Z,99.90
2022-09-24T02:14:39.203Z,99.90
2022-09-24T02:17:09.191Z,99.90
2022-09-24T02:19:39.219Z,99.90
2022-09-24T02:22:09.473Z,99.90
2022-09-24T02:24:42.059Z,99.90
2022-09-24T02:27:10.544Z,99.90
2022-09-24T02:29:38.962Z,99.90
2022-09-24T02:32:10.614Z,99.90
2022-09-24T02:34:40.325Z,99.90
2022-09-24T02:37:10.936Z,99.90
2022-09-24T02:39:39.515Z,99.90
2022-09-24T02:42:09.567Z,99.90
2022-09-24T02:44:38.547Z,99.90
2022-09-24T02:47:08.390Z,99.90
2022-09-24T02:49:37.016Z,99.90
2022-09-24T02:52:05.704Z,99.90
2022-09-24T02:54:34.353Z,99.90
2022-09-24T02:57:02.804Z,99.90
2022-09-24T02:59:31.250Z,99.90
2022-09-24T03:01:59.704Z,99.90
2022-09-24T03:04:30.806Z,99.90
2022-09-24T03:06:59.324Z,99.90
2022-09-24T03:09:27.895Z,99.90
2022-09-24T03:11:56.830Z,99.90
2022-09-24T03:14:26.107Z,99.90
2022-09-24T03:16:54.578Z,99.90
2022-09-24T03:19:23.003Z,99.90
2022-09-24T03:21:52.780Z,99.90
2022-09-24T03:24:22.199Z,99.90
2022-09-24T03:26:50.863Z,99.90
2022-09-24T03:29:40.178Z,99.90
2022-09-24T03:32:07.613Z,99.90
2022-09-24T03:34:36.061Z,99.90
2022-09-24T03:37:05.921Z,99.90
2022-09-24T03:39:34.341Z,99.90
2022-09-24T03:42:02.712Z,99.90
2022-09-24T03:44:31.146Z,99.90
2022-09-24T03:46:59.597Z,99.90
2022-09-24T03:49:28.145Z,99.90
2022-09-24T03:51:56.563Z,99.90
2022-09-24T03:54:26.376Z,99.90
2022-09-24T03:56:54.827Z,99.90
2022-09-24T03:59:23.385Z,99.90
2022-09-24T04:01:51.846Z,99.90
2022-09-24T04:04:20.404Z,99.90
2022-09-24T04:06:49.027Z,99.90
2022-09-24T04:09:17.510Z,99.90
2022-09-24T04:11:47.347Z,99.90
2022-09-24T04:14:15.738Z,99.90
2022-09-24T04:16:44.243Z,99.90
2022-09-24T04:19:12.945Z,99.90
2022-09-24T04:21:41.360Z,99.90
2022-09-24T04:24:10.915Z,99.90
2022-09-24T04:26:39.374Z,99.90
2022-09-24T04:29:09.607Z,99.90
2022-09-24T04:31:39.630Z,99.90
2022-09-24T04:34:08.229Z,99.90
2022-09-24T04:36:36.720Z,99.90
2022-09-24T04:39:05.810Z,99.90
2022-09-24T04:41:35.123Z,99.90
2022-09-24T04:44:05.284Z,99.90
2022-09-24T04:46:35.229Z,99.90
2022-09-24T04:49:03.665Z,99.90
2022-09-24T04:51:33.909Z,99.90
2022-09-24T04:54:03.404Z,99.90
2022-09-24T04:56:32.087Z,99.90
2022-09-24T04:59:00.505Z,99.90
2022-09-24T05:01:29.199Z,99.90
2022-09-24T05:03:58.997Z,99.90
2022-09-24T05:06:27.460Z,99.90
2022-09-24T05:08:55.881Z,99.90
2022-09-24T05:11:24.432Z,99.90
2022-09-24T05:13:52.872Z,99.90
2022-09-24T05:16:21.407Z,99.90
2022-09-24T05:18:49.942Z,99.90
2022-09-24T05:21:19.876Z,99.90
2022-09-24T05:23:48.324Z,99.90
2022-09-24T05:26:34.030Z,99.90
2022-09-24T05:29:02.577Z,99.90
2022-09-24T05:31:31.094Z,99.90
2022-09-24T05:33:59.570Z,99.90
2022-09-24T05:36:29.353Z,99.90
2022-09-24T05:38:57.796Z,99.90
2022-09-24T05:41:26.365Z,99.90
2022-09-24T05:43:58.300Z,99.90
2022-09-24T05:46:26.991Z,99.90
2022-09-24T05:48:55.876Z,99.90
2022-09-24T05:51:24.333Z,99.90
2022-09-24T05:53:54.186Z,99.90
2022-09-24T05:56:22.708Z,99.90
2022-09-24T05:58:51.349Z,99.90
2022-09-24T06:01:20.143Z,99.90
2022-09-24T06:03:48.795Z,99.90
2022-09-24T06:06:17.288Z,99.90
2022-09-24T06:08:45.817Z,99.90
2022-09-24T06:11:15.622Z,99.90
2022-09-24T06:13:44.208Z,99.90
2022-09-24T06:16:13.577Z,99.90
2022-09-24T06:18:44.238Z,99.90
2022-09-24T06:21:14.229Z,99.90
2022-09-24T06:23:45.304Z,99.90
2022-09-24T06:26:15.887Z,99.90
2022-09-24T06:28:44.358Z,99.90
2022-09-24T06:31:12.834Z,99.90
2022-09-24T06:33:42.486Z,99.90
2022-09-24T06:36:10.962Z,99.90
2022-09-24T06:38:41.200Z,99.90
2022-09-24T06:41:10.174Z,99.90
2022-09-24T06:43:40.000Z,99.90
2022-09-24T06:46:08.452Z,99.90
2022-09-24T06:48:38.175Z,99.90
2022-09-24T06:51:07.703Z,99.90
2022-09-24T06:53:36.187Z,99.90
2022-09-24T06:56:04.687Z,99.90
2022-09-24T06:58:33.988Z,99.90
2022-09-24T07:01:04.218Z,99.90
2022-09-24T07:03:34.260Z,99.90
2022-09-24T07:06:03.817Z,99.90
2022-09-24T07:08:32.620Z,99.90
2022-09-24T07:11:02.224Z,99.90
2022-09-24T07:13:30.836Z,99.90
2022-09-24T07:16:01.466Z,99.90
2022-09-24T07:18:31.499Z,99.90
2022-09-24T07:20:59.983Z,99.90
2022-09-24T07:23:31.518Z,99.90
2022-09-24T07:26:00.153Z,99.90
2022-09-24T07:28:28.700Z,99.90
2022-09-24T07:31:00.758Z,99.90
2022-09-24T07:33:29.305Z,99.90
2022-09-24T07:36:02.130Z,99.90
2022-09-24T07:38:30.604Z,99.90
2022-09-24T07:40:59.992Z,99.90
2022-09-24T07:43:28.631Z,99.90
2022-09-24T07:45:58.266Z,99.90
2022-09-24T07:48:26.959Z,99.90
2022-09-24T07:50:55.949Z,99.90
2022-09-24T07:53:25.747Z,99.90
2022-09-24T07:55:56.355Z,99.90
2022-09-24T07:58:24.789Z,99.90
2022-09-24T08:00:53.208Z,99.90
2022-09-24T08:03:21.731Z,99.90
2022-09-24T08:05:50.275Z,99.90
2022-09-24T08:08:20.611Z,99.90
2022-09-24T08:10:50.527Z,99.90
2022-09-24T08:13:21.617Z,99.90
2022-09-24T08:15:59.228Z,99.90
2022-09-24T08:18:31.790Z,99.90
2022-09-24T08:21:01.038Z,99.80
2022-09-24T08:23:29.447Z,99.60
2022-09-24T08:26:01.061Z,99.00
2022-09-24T08:28:29.955Z,98.80
2022-09-24T08:31:00.581Z,98.60
2022-09-24T08:33:31.339Z,98.50
2022-09-24T08:36:00.769Z,98.40
2022-09-24T08:38:29.226Z,98.80
2022-09-24T08:41:07.387Z,98.90
2022-09-24T08:43:48.173Z,99.40
2022-09-24T08:46:35.966Z,98.80
2022-09-24T08:49:06.971Z,98.90
2022-09-24T08:51:47.224Z,99.90
2022-09-24T08:54:16.358Z,99.50
2022-09-24T08:56:47.673Z,98.60
2022-09-24T08:59:26.284Z,99.30
2022-09-24T09:02:01.318Z,99.90
2022-09-24T09:04:34.738Z,99.90
2022-09-24T09:07:11.831Z,99.90
2022-09-24T09:09:49.844Z,99.90
2022-09-24T09:12:27.013Z,99.90
2022-09-24T09:15:01.540Z,99.90
2022-09-24T09:17:37.831Z,99.90
2022-09-24T09:20:11.518Z,99.50
2022-09-24T09:22:44.040Z,99.90
2022-09-24T09:25:19.928Z,99.90
2022-09-24T09:27:51.939Z,99.80
2022-09-24T09:30:21.994Z,99.00
2022-09-24T09:33:15.738Z,99.10
2022-09-24T09:35:50.801Z,99.00
2022-09-24T09:38:23.983Z,99.30
2022-09-24T09:40:58.947Z,99.00
2022-09-24T09:43:29.397Z,99.40
2022-09-24T09:46:10.619Z,99.50
2022-09-24T09:48:45.584Z,98.60
2022-09-24T09:51:22.797Z,97.70
2022-09-24T09:53:59.052Z,96.70
2022-09-24T09:56:29.673Z,97.10
2022-09-24T09:59:08.197Z,96.90
2022-09-24T10:01:38.305Z,98.50
2022-09-24T10:04:06.840Z,98.40
2022-09-24T10:06:37.086Z,97.20
2022-09-24T10:09:12.779Z,98.10
2022-09-24T10:11:42.179Z,97.10
2022-09-24T10:14:14.001Z,97.60
2022-09-24T10:16:44.150Z,98.30
2022-09-24T10:19:17.755Z,97.50
2022-09-24T10:21:46.342Z,96.90
2022-09-24T10:24:17.669Z,97.90
2022-09-24T10:26:47.091Z,96.30
2022-09-24T10:29:36.422Z,97.40
2022-09-24T10:32:05.676Z,97.70
2022-09-24T10:34:34.592Z,97.20
2022-09-24T10:37:10.194Z,97.20
2022-09-24T10:39:39.582Z,96.70
2022-09-24T10:42:22.849Z,96.90
2022-09-24T10:44:53.830Z,95.90
2022-09-24T10:47:28.222Z,95.90
2022-09-24T10:50:24.419Z,93.30
2022-09-24T10:52:55.440Z,94.20
2022-09-24T10:55:43.399Z,95.30
2022-09-24T10:58:23.159Z,96.50
2022-09-24T11:00:59.215Z,95.60
2022-09-24T11:03:42.821Z,95.40
2022-09-24T11:06:18.232Z,95.50
2022-09-24T11:09:02.620Z,95.00
2022-09-24T11:11:40.064Z,93.80
2022-09-24T11:14:21.300Z,95.40
2022-09-24T11:17:20.122Z,95.60
2022-09-24T11:20:00.243Z,95.20
2022-09-24T11:22:35.082Z,96.70
2022-09-24T11:25:24.439Z,93.80
2022-09-24T11:27:57.822Z,94.80
2022-09-24T11:30:28.619Z,93.50
2022-09-24T11:33:09.499Z,93.60
2022-09-24T11:36:08.478Z,95.60
2022-09-24T11:38:49.787Z,95.60
2022-09-24T11:41:30.263Z,93.80
2022-09-24T11:44:22.224Z,92.70
2022-09-24T11:46:59.913Z,93.90
2022-09-24T11:49:38.925Z,94.80
2022-09-24T11:52:11.616Z,94.60
2022-09-24T11:54:44.741Z,94.90
2022-09-24T11:57:20.995Z,94.60
2022-09-24T11:59:53.772Z,93.30
2022-09-24T12:02:30.973Z,94.00
2022-09-24T12:05:03.612Z,94.90
2022-09-24T12:07:40.233Z,94.30
2022-09-24T12:10:30.447Z,92.90
2022-09-24T12:13:05.394Z,91.90
2022-09-24T12:15:48.216Z,92.00
2022-09-24T12:18:20.480Z,91.80
2022-09-24T12:20:53.341Z,91.50
2022-09-24T12:23:27.969Z,91.10
2022-09-24T12:25:56.943Z,92.10
2022-09-24T12:28:43.996Z,91.00
2022-09-24T12:31:41.023Z,91.90
2022-09-24T12:34:14.143Z,92.40
2022-09-24T12:36:57.457Z,90.00
2022-09-24T12:39:29.150Z,89.90
2022-09-24T12:42:01.041Z,89.30
2022-09-24T12:44:35.362Z,92.30
2022-09-24T12:47:04.217Z,92.20
2022-09-24T12:49:35.471Z,91.70
2022-09-24T12:52:17.671Z,90.60
2022-09-24T12:54:46.644Z,85.20
2022-09-24T12:57:21.443Z,85.50
2022-09-24T12:59:55.319Z,86.60
2022-09-24T13:02:25.278Z,90.00
2022-09-24T13:05:17.369Z,88.40
2022-09-24T13:07:58.154Z,90.40
2022-09-24T13:10:29.270Z,86.40
2022-09-24T13:12:59.930Z,88.10
2022-09-24T13:15:34.492Z,86.10
2022-09-24T13:18:19.942Z,86.70
2022-09-24T13:21:01.910Z,84.10
2022-09-24T13:23:49.526Z,84.30
2022-09-24T13:26:33.739Z,83.00
2022-09-24T13:29:03.327Z,85.80
2022-09-24T13:31:36.975Z,85.60
2022-09-24T13:34:15.010Z,84.10
2022-09-24T13:36:46.997Z,86.60
2022-09-24T13:39:19.760Z,83.40
2022-09-24T13:41:54.687Z,83.00
2022-09-24T13:44:27.360Z,81.30
2022-09-24T13:47:01.263Z,81.10
2022-09-24T13:49:32.089Z,84.10
2022-09-24T13:52:10.102Z,82.40
2022-09-24T13:54:48.742Z,79.20
2022-09-24T13:57:23.652Z,82.30
2022-09-24T14:00:06.503Z,85.10
2022-09-24T14:02:38.694Z,85.40
2022-09-24T14:05:12.580Z,84.20
2022-09-24T14:07:41.916Z,83.10
2022-09-24T14:10:16.091Z,80.10
2022-09-24T14:12:44.591Z,81.50
2022-09-24T14:15:16.390Z,79.50
2022-09-24T14:17:47.369Z,80.40
2022-09-24T14:20:16.841Z,81.80
2022-09-24T14:22:46.517Z,82.10
2022-09-24T14:25:21.572Z,80.50
2022-09-24T14:27:52.302Z,78.50
2022-09-24T14:30:22.447Z,79.50
2022-09-24T14:32:53.084Z,81.00
2022-09-24T14:35:29.654Z,80.20
2022-09-24T14:38:03.708Z,80.60
2022-09-24T14:40:41.391Z,79.50
2022-09-24T14:43:16.993Z,79.30
2022-09-24T14:45:47.069Z,79.70
2022-09-24T14:48:22.044Z,80.00
2022-09-24T14:50:50.668Z,79.70
2022-09-24T14:53:23.718Z,81.90
2022-09-24T14:55:53.837Z,80.10
2022-09-24T14:58:27.179Z,82.00
2022-09-24T15:00:58.140Z,81.90
2022-09-24T15:03:30.640Z,83.00
2022-09-24T15:06:19.638Z,81.80
2022-09-24T15:08:57.417Z,82.40
2022-09-24T15:11:28.870Z,81.90
2022-09-24T15:14:02.985Z,82.40
2022-09-24T15:16:33.926Z,82.10
2022-09-24T15:19:16.944Z,82.90
2022-09-24T15:21:46.223Z,84.80
2022-09-24T15:24:14.658Z,84.00
2022-09-24T15:26:46.285Z,84.60
2022-09-24T15:29:21.090Z,84.90
2022-09-24T15:31:50.556Z,83.80
2022-09-24T15:34:20.546Z,84.10
2022-09-24T15:36:49.816Z,82.70
2022-09-24T15:39:20.651Z,83.70
2022-09-24T15:41:52.507Z,83.10
2022-09-24T15:44:29.770Z,83.70
2022-09-24T15:47:01.578Z,83.50
2022-09-24T15:49:30.231Z,83.50
2022-09-24T15:52:02.065Z,84.20
2022-09-24T15:54:30.551Z,84.60
2022-09-24T15:57:00.762Z,84.90
2022-09-24T15:59:29.520Z,84.70
2022-09-24T16:02:02.144Z,84.50
2022-09-24T16:04:30.825Z,83.40
2022-09-24T16:07:01.739Z,83.70
2022-09-24T16:09:30.946Z,83.60
2022-09-24T16:12:03.830Z,83.50
2022-09-24T16:14:32.611Z,83.90
2022-09-24T16:17:01.330Z,84.70
2022-09-24T16:19:30.693Z,84.00
2022-09-24T16:21:59.608Z,84.80
2022-09-24T16:24:28.276Z,86.20
2022-09-24T16:26:56.738Z,87.60
2022-09-24T16:29:30.173Z,86.50
2022-09-24T16:31:58.623Z,86.50
2022-09-24T16:34:27.415Z,87.70
2022-09-24T16:36:56.172Z,87.50
2022-09-24T16:39:24.624Z,86.40
2022-09-24T16:41:56.470Z,87.30
2022-09-24T16:44:24.856Z,87.80
2022-09-24T16:46:56.868Z,87.50
2022-09-24T16:49:25.896Z,87.20
2022-09-24T16:51:54.376Z,86.90
2022-09-24T16:54:23.406Z,87.70
2022-09-24T16:56:59.952Z,88.80
2022-09-24T16:59:30.010Z,89.20
2022-09-24T17:02:00.142Z,90.10
2022-09-24T17:04:30.020Z,90.90
2022-09-24T17:07:01.475Z,91.30
2022-09-24T17:09:46.756Z,90.80
2022-09-24T17:12:15.287Z,90.70
2022-09-24T17:14:45.454Z,90.00
2022-09-24T17:17:20.393Z,90.10
2022-09-24T17:19:49.081Z,90.80
2022-09-24T17:22:18.038Z,91.50
2022-09-24T17:24:46.477Z,92.20
2022-09-24T17:27:14.975Z,92.60
2022-09-24T17:29:43.758Z,92.10
2022-09-24T17:32:12.214Z,94.00
2022-09-24T17:34:45.713Z,93.20
2022-09-24T17:37:14.588Z,92.00
2022-09-24T17:39:43.102Z,91.60
2022-09-24T17:42:11.512Z,91.20
2022-09-24T17:44:39.912Z,90.60
2022-09-24T17:47:08.876Z,91.00
2022-09-24T17:49:37.723Z,92.20
2022-09-24T17:52:07.576Z,93.70
2022-09-24T17:54:36.111Z,93.90
2022-09-24T17:57:04.727Z,94.30
2022-09-24T17:59:33.135Z,94.60
2022-09-24T18:02:01.629Z,94.90
2022-09-24T18:04:31.358Z,95.20
2022-09-24T18:06:59.876Z,95.50
2022-09-24T18:09:31.840Z,95.90
2022-09-24T18:12:00.334Z,96.50
2022-09-24T18:14:28.829Z,96.90
2022-09-24T18:16:57.524Z,97.20
2022-09-24T18:19:26.320Z,97.40
2022-09-24T18:21:56.114Z,97.50
2022-09-24T18:24:24.922Z,97.70
2022-09-24T18:26:54.728Z,97.90
2022-09-24T18:29:23.993Z,98.00
2022-09-24T18:31:52.505Z,98.20
2022-09-24T18:34:20.972Z,98.40
2022-09-24T18:36:49.477Z,98.40
2022-09-24T18:39:24.735Z,98.40
2022-09-24T18:41:55.362Z,98.20
2022-09-24T18:44:23.727Z,98.30
2022-09-24T18:46:52.482Z,98.30
2022-09-24T18:49:20.975Z,98.80
2022-09-24T18:51:52.027Z,98.50
2022-09-24T18:54:20.666Z,99.00
2022-09-24T18:56:49.186Z,99.40
2022-09-24T18:59:20.678Z,99.90
2022-09-24T19:01:50.733Z,99.90
2022-09-24T19:04:19.977Z,99.90
2022-09-24T19:06:49.925Z,99.90
2022-09-24T19:09:20.221Z,99.90
2022-09-24T19:11:49.245Z,99.90
2022-09-24T19:14:19.091Z,99.90
2022-09-24T19:16:48.254Z,99.90
2022-09-24T19:19:17.236Z,99.90
2022-09-24T19:21:45.693Z,99.90
2022-09-24T19:24:14.273Z,99.90
2022-09-24T19:26:43.394Z,99.90
2022-09-24T19:29:12.052Z,99.90
2022-09-24T19:31:43.346Z,99.90
2022-09-24T19:34:14.419Z,99.90
2022-09-24T19:36:46.159Z,99.90
2022-09-24T19:39:16.937Z,99.90
2022-09-24T19:41:45.540Z,99.90
2022-09-24T19:44:16.469Z,99.90
2022-09-24T19:46:47.022Z,99.90
2022-09-24T19:49:15.629Z,99.90
2022-09-24T19:51:44.228Z,99.90
2022-09-24T19:54:12.850Z,99.90
2022-09-24T19:56:42.121Z,99.90
2022-09-24T19:59:11.453Z,99.90
2022-09-24T20:01:41.261Z,99.90
2022-09-24T20:04:11.257Z,99.90
2022-09-24T20:06:39.973Z,99.90
2022-09-24T20:09:08.980Z,99.90
2022-09-24T20:11:37.487Z,99.90
2022-09-24T20:14:09.028Z,99.90
2022-09-24T20:16:38.103Z,99.90
2022-09-24T20:19:06.709Z,99.90
2022-09-24T20:21:38.482Z,99.90
2022-09-24T20:24:09.263Z,99.90
2022-09-24T20:26:55.054Z,99.90
2022-09-24T20:29:24.379Z,99.90
2022-09-24T20:31:55.795Z,99.90
2022-09-24T20:34:26.437Z,99.90
2022-09-24T20:36:58.443Z,99.90
2022-09-24T20:39:26.924Z,99.90
2022-09-24T20:41:55.352Z,99.90
2022-09-24T20:44:25.265Z,99.90
2022-09-24T20:46:53.696Z,99.90
2022-09-24T20:49:23.368Z,99.90
2022-09-24T20:51:56.512Z,99.90
2022-09-24T20:54:28.465Z,99.90
2022-09-24T20:56:58.914Z,99.90
2022-09-24T20:59:27.932Z,99.90
2022-09-24T21:01:56.635Z,99.90
2022-09-24T21:04:25.921Z,99.90
2022-09-24T21:06:55.232Z,99.90
2022-09-24T21:09:23.937Z,99.90
2022-09-24T21:11:54.450Z,99.90
2022-09-24T21:14:23.580Z,99.90
2022-09-24T21:16:55.026Z,99.90
2022-09-24T21:19:24.304Z,99.90
2022-09-24T21:21:53.857Z,99.90
2022-09-24T21:24:25.097Z,99.90
2022-09-24T21:26:59.086Z,99.90
2022-09-24T21:29:27.588Z,99.90
2022-09-24T21:31:56.064Z,99.90
2022-09-24T21:34:24.546Z,99.90
2022-09-24T21:36:53.173Z,99.90
2022-09-24T21:39:23.568Z,99.90
2022-09-24T21:41:55.350Z,99.90
2022-09-24T21:44:25.291Z,99.90
2022-09-24T21:46:54.348Z,99.90
2022-09-24T21:49:23.160Z,99.90
2022-09-24T21:51:52.495Z,99.90
2022-09-24T21:54:21.080Z,99.90
2022-09-24T21:56:49.917Z,99.90
2022-09-24T21:59:35.816Z,99.90
2022-09-24T22:02:06.042Z,99.90
2022-09-24T22:04:34.583Z,99.90
2022-09-24T22:07:03.480Z,99.90
2022-09-24T22:09:32.513Z,99.90
2022-09-24T22:12:01.863Z,99.90
2022-09-24T22:14:30.390Z,99.90
2022-09-24T22:16:58.860Z,99.90
2022-09-24T22:19:28.844Z,99.90
2022-09-24T22:21:57.318Z,99.90
2022-09-24T22:24:25.739Z,99.90
2022-09-24T22:26:54.406Z,99.90
2022-09-24T22:29:22.935Z,99.90
2022-09-24T22:31:51.398Z,99.90
2022-09-24T22:34:37.119Z,99.90
2022-09-24T22:37:08.044Z,99.90
2022-09-24T22:39:36.758Z,99.90
2022-09-24T22:42:05.579Z,99.90
2022-09-24T22:44:34.098Z,99.90
2022-09-24T22:47:02.740Z,99.90
2022-09-24T22:49:31.861Z,99.90
2022-09-24T22:52:00.360Z,99.90
2022-09-24T22:54:30.494Z,99.90
2022-09-24T22:56:59.019Z,99.90
2022-09-24T22:59:27.427Z,99.90
2022-09-24T23:01:55.831Z,99.90
2022-09-24T23:04:24.399Z,99.90
2022-09-24T23:06:52.916Z,99.90
2022-09-24T23:09:21.699Z,99.90
2022-09-24T23:11:51.667Z,99.90
2022-09-24T23:14:20.065Z,99.90
2022-09-24T23:16:48.663Z,99.90
2022-09-24T23:19:18.458Z,99.90
2022-09-24T23:21:47.271Z,99.90
2022-09-24T23:24:17.584Z,99.90
2022-09-24T23:26:46.591Z,99.90
2022-09-24T23:29:16.569Z,99.90
2022-09-24T23:31:45.555Z,99.90
2022-09-24T23:34:14.946Z,99.90
2022-09-24T23:36:45.158Z,99.90
2022-09-24T23:39:13.801Z,99.90
2022-09-24T23:41:42.304Z,99.90
2022-09-24T23:44:10.992Z,99.90
2022-09-24T23:46:40.906Z,99.90
2022-09-24T23:49:09.699Z,99.90
2022-09-24T23:51:38.338Z,99.90
2022-09-24T23:54:07.360Z,99.90
2022-09-24T23:56:35.782Z,99.90
2022-09-24T23:59:05.253Z,99.90
